LFRO

Lannion-Côte de Granit Airport

Airport
ICAO code
LFRO
IATA Code
LAI
Summary
ICAO Region
EUR
ICAO Territory
Location

, Bretagne

Serving
Lannion
Elevation
290 ft
Coordinates
48° 45' 16" N , 3° 28' 18" W
Metar
Observation
LFRO 021530Z AUTO 29001KT 6000 FEW046 SCT054 OVC160 06/04 Q1021
Station
Lannion / Servel
Date/Time
2022-12-02 15:30:00
Wind direction
290°
Wind speed
01 kts
Lowest cloud amount
few clouds
Temperature
6°C
Dew point
4°C
Humidity
86%
QNH
1021 hPa
Weather condition
n/a

Runways

Designator Length Width Surface Rops
11/29 1700 45 ASP Yes/Yes

Airport map

Aerial View

SKYbrary Partners:

Safety knowledge contributed by: